Weather observations for the past three days for
Hanchey AHP / Ozark
| Date | Time (cdt) | Wind (kph) | Vis. (km) | Weather | Sky Cond. | Temperature (ºC) | Relative Humidity | Wind Chill (°C) | Heat Index (°C) | Pressure | Precipitation (cm) | ||||||
|---|---|---|---|---|---|---|---|---|---|---|---|---|---|---|---|---|---|
| Air | Dwpt | 6 hour | altimeter (cm) | sea level (mb) | 1 hr | 3 hr | 6 hr | ||||||||||
| Max. | Min. | ||||||||||||||||
| 01 | 16:55 | E 9 | 16.09 | A Few Clouds | FEW070 | 35.1 | 21.7 | 46% | 39 | 76.17 | 1015.4 | ||||||
| 01 | 15:55 | E 13 | 16.09 | A Few Clouds | FEW055 | 35.7 | 21.9 | 45% | 40 | 76.17 | 1015.4 | ||||||
| 01 | 14:55 | E 7 | 16.09 | Fair | CLR | 35.1 | 22 | 47% | 40 | 76.2 | 1015.7 | ||||||
| 01 | 13:55 | NE 13 | 16.09 | A Few Clouds | FEW049 | 34.6 | 22.3 | 49% | 39 | 76.28 | 1016.8 | ||||||
| 01 | 12:55 | E 17 | 16.09 | Partly Cloudy | SCT095 SCT310 | 34.4 | 22.4 | 34.4 | 24 | 50% | 39 | 76.35 | 1017.8 | ||||
| 01 | 11:55 | NE 11 | 16.09 | Mostly Cloudy | BKN042 | 33 | 22.7 | 55% | 38 | 76.38 | 1018.1 | ||||||
| 01 | 10:55 | NE 9 | 16.09 | A Few Clouds | FEW036 | 32.1 | 22.7 | 58% | 37 | 76.4 | 1018.5 | ||||||
| 01 | 09:55 | NE 9 | 16.09 | Fair | CLR | 31.4 | 23.2 | 62% | 36 | 76.4 | 1018.5 | ||||||
| 01 | 08:55 | NE 11 | 16.09 | Fair | CLR | 28.8 | 23.7 | 74% | 33 | 76.4 | 1018.5 | ||||||
| 01 | 07:55 | NE 7 | 16.09 | Fair | CLR | 26.9 | 23.3 | 81% | 30 | 76.4 | 1018.5 | ||||||
| 01 | 06:55 | Calm | 14.48 | Fair | CLR | 24.1 | 22.5 | 25.8 | 22.8 | 91% | 24 | 76.38 | 1018.1 | ||||
| 01 | 05:55 | Calm | 14.48 | Fair | CLR | 23 | 22.1 | 95% | 76.33 | 1017.5 | |||||||
| 01 | 04:55 | Calm | 16.09 | Fair | CLR | 24.4 | 22.6 | 90% | 24 | 76.28 | 1016.8 | ||||||
| 01 | 03:55 | N 6 | 16.09 | Fair | CLR | 23.8 | 22.4 | 92% | 76.28 | 1016.8 | |||||||
| 01 | 02:55 | Calm | 16.09 | Fair | CLR | 23.5 | 22.3 | 93% | 76.28 | 1016.8 | |||||||
| 01 | 01:55 | Calm | 16.09 | Fair | CLR | 23.7 | 22.6 | 94% | 76.28 | 1016.8 | |||||||
| 01 | 00:55 | Calm | 16.09 | Fair | CLR | 25.5 | 22.8 | 32.5 | 24 | 85% | 27 | 76.3 | 1017.1 | ||||
| 31 | 23:55 | Calm | 16.09 | Fair | CLR | 24.8 | 23 | 90% | 25 | 76.33 | 1017.4 | ||||||
| 31 | 22:55 | Calm | 16.09 | Fair | CLR | 25.7 | 23.1 | 86% | 27 | 76.33 | 1017.4 | ||||||
| 31 | 21:55 | Calm | 16.09 | Fair | CLR | 26.4 | 23.4 | 84% | 29 | 76.33 | 1017.5 | ||||||
| 31 | 20:55 | Calm | 16.09 | Fair | CLR | 28.6 | 22.8 | 71% | 32 | 76.3 | 1017.1 | ||||||
| 31 | 19:55 | Calm | 16.09 | Fair | CLR | 29.9 | 22.6 | 65% | 34 | 76.25 | 1016.4 | ||||||
| 31 | 17:55 | E 7 | 14.48 | Fair | CLR | 33.8 | 21.2 | 48% | 37 | 76.23 | 1016.1 | ||||||
| 31 | 16:55 | E 9 | 16.09 | Fair | CLR | 34.4 | 20.7 | 45% | 37 | 76.23 | 1016.1 | ||||||
| 31 | 15:55 | E 9 | 14.48 | Fair | CLR | 33.9 | 21.3 | 48% | 37 | 76.25 | 1016.4 | ||||||
| 31 | 14:55 | E 20 | 16.09 | A Few Clouds | FEW050 | 34.5 | 21.1 | 46% | 38 | 76.28 | 1016.7 | ||||||
| 31 | 13:55 | E 11 | 16.09 | Partly Cloudy | SCT048 | 34.4 | 22.1 | 49% | 39 | 76.3 | 1017.1 | ||||||
| 31 | 12:55 | E 19 | 16.09 | A Few Clouds | FEW041 | 33.3 | 22.1 | 33.3 | 24.1 | 52% | 37 | 76.38 | 1018.1 | ||||
| 31 | 11:55 | E 15 | 16.09 | Fair | CLR | 32 | 22.4 | 57% | 36 | 76.43 | 1018.8 | ||||||
| 31 | 10:55 | E 9 | 16.09 | Mostly Cloudy | BKN026 | 31.5 | 23.3 | 62% | 36 | 76.45 | 1019.1 | ||||||
| 31 | 09:55 | E 13 | 16.09 | Fair | CLR | 29.4 | 24 | 73% | 34 | 76.45 | 1019.2 | ||||||
| 31 | 07:55 | E 13 | 16.09 | A Few Clouds | FEW007 | 25.5 | 23.1 | 87% | 27 | 76.45 | 1019.2 | ||||||
| 31 | 06:55 | NE 7 | 16.09 | Fair | CLR | 24 | 22.8 | 26.3 | 23.9 | 93% | 23 | 76.4 | 1018.5 | ||||
| 31 | 05:55 | E 9 | 16.09 | Fair | CLR | 24 | 22.6 | 92% | 23 | 76.35 | 1017.8 | ||||||
| 31 | 04:55 | E 11 | 16.09 | Fair | CLR | 24.4 | 22.6 | 90% | 24 | 76.3 | 1017.1 | ||||||
| 31 | 03:55 | NE 7 | 16.09 | Fair | CLR | 24.6 | 22.6 | 89% | 25 | 76.3 | 1017.1 | ||||||
| 31 | 02:55 | E 9 | 16.09 | Fair | CLR | 24.9 | 22.7 | 88% | 26 | 76.3 | 1017.1 | ||||||
| 31 | 01:55 | NE 7 | 16.09 | Fair | CLR | 25.8 | 22.9 | 84% | 27 | 76.3 | 1017.1 | ||||||
| 31 | 00:55 | E 6 | 16.09 | Fair | CLR | 25.8 | 23.4 | 29.8 | 25.4 | 87% | 27 | 76.33 | 1017.4 | ||||
| 30 | 23:55 | E 7 | 16.09 | Fair | CLR | 26.7 | 23.3 | 82% | 29 | 76.3 | 1017.1 | ||||||
| 30 | 22:55 | E 7 | 16.09 | Fair | CLR | 26.8 | 23.2 | 81% | 29 | 76.33 | 1017.4 | ||||||
| 30 | 21:55 | E 9 | 16.09 | Fair | CLR | 27.6 | 23.6 | 79% | 31 | 76.33 | 1017.5 | ||||||
| 30 | 20:55 | E 7 | 16.09 | Fair | CLR | 28.2 | 23.5 | 76% | 32 | 76.33 | 1017.5 | ||||||
| 30 | 19:55 | E 7 | 16.09 | Fair | CLR | 28.9 | 23.3 | 72% | 33 | 76.3 | 1017.1 | ||||||
| 30 | 18:55 | SE 6 | 16.09 | Fair | CLR | 29.9 | 23.5 | 34 | 29.9 | 69% | 34 | 76.28 | 1016.8 | ||||
| 30 | 17:55 | E 9 | 16.09 | Fair | CLR | 32.1 | 23 | 59% | 37 | 76.23 | 1016.1 | ||||||
| 30 | 16:55 | SE 9 | 14.48 | Fair | CLR | 32.1 | 22.7 | 58% | 37 | 76.25 | 1016.4 | ||||||
| 30 | 15:55 | E 19 | 16.09 | Fair | CLR | 33.7 | 22.4 | 52% | 38 | 76.25 | 1016.4 | ||||||
| 30 | 14:55 | E 11 | 16.09 | Fair | CLR | 32.7 | 21.8 | 53% | 36 | 76.3 | 1017.1 | ||||||
| 30 | 13:55 | NE 11 | 16.09 | Partly Cloudy | FEW041 SCT065 | 32.6 | 22.3 | 55% | 37 | 76.35 | 1017.8 | ||||||
| 30 | 12:55 | E 19 G 28 | 16.09 | A Few Clouds | FEW036 FEW047 | 32.6 | 22.6 | 32.6 | 23.8 | 56% | 37 | 76.4 | 1018.5 | ||||
| 30 | 11:55 | E 19 | 16.09 | Fair | CLR | 31.7 | 22.1 | 57% | 35 | 76.45 | 1019.1 | ||||||
| 30 | 10:55 | E 13 | 16.09 | Partly Cloudy | SCT170 | 30.4 | 22.8 | 64% | 34 | 76.5 | 1019.8 | ||||||
| 30 | 09:55 | E 15 | 16.09 | Fair | CLR | 28.8 | 23 | 71% | 32 | 76.48 | 1019.5 | ||||||
| 30 | 08:55 | E 11 | 16.09 | Fair | CLR | 26.9 | 23.1 | 80% | 29 | 76.48 | 1019.5 | ||||||
| 30 | 07:55 | E 9 | 16.09 | Fair | CLR | 25 | 23 | 89% | 26 | 76.45 | 1019.2 | ||||||
| 30 | 06:55 | E 7 | 12.87 | Fair | CLR | 23.9 | 23 | 24.3 | 23.1 | 95% | 23 | 76.43 | 1018.9 | ||||
| 30 | 05:55 | E 7 | 16.09 | A Few Clouds | FEW001 | 23.7 | 22.8 | 95% | 76.35 | 1017.8 | |||||||
| 30 | 04:55 | E 9 | 16.09 | Fair | CLR | 23.9 | 22.8 | 94% | 23 | 76.35 | 1017.8 | ||||||
| 30 | 03:55 | E 9 | 16.09 | Fair | CLR | 24.2 | 22.8 | 92% | 24 | 76.33 | 1017.5 | ||||||
| 30 | 02:55 | NE 9 | 16.09 | Fair | CLR | 24.1 | 22.9 | 93% | 24 | 76.33 | 1017.5 | ||||||
| 30 | 01:55 | Calm | 16.09 | Fair | CLR | 23.4 | 22.5 | 95% | 76.33 | 1017.5 | |||||||
| 30 | 00:55 | Calm | 16.09 | Fair | CLR | 23.9 | 22.8 | 28.3 | 23.8 | 94% | 23 | 76.38 | 1018.1 | ||||
| 29 | 23:55 | Calm | 16.09 | Fair | CLR | 25.5 | 23.5 | 89% | 27 | 76.43 | 1018.8 | ||||||
| 29 | 22:55 | SE 6 | 16.09 | Fair | CLR | 25 | 23.4 | 91% | 26 | 76.43 | 1018.8 | ||||||
| 29 | 21:55 | Calm | 16.09 | Fair | CLR | 25.4 | 23.4 | 89% | 27 | 76.43 | 1018.8 | ||||||
| 29 | 20:55 | Calm | 16.09 | Mostly Cloudy | BKN070 | 26.4 | 23 | 82% | 29 | 76.4 | 1018.5 | ||||||
| 29 | 19:55 | SE 6 | 16.09 | Fair | CLR | 26.6 | 23.2 | 82% | 29 | 76.3 | 1017.2 | ||||||
| 29 | 18:55 | S 11 | 16.09 | Fair | CLR | 28.3 | 23 | 31.8 | 28.3 | 73% | 32 | 76.25 | 1016.5 | ||||
| 29 | 17:55 | S 9 | 16.09 | Mostly Cloudy | SCT037 BKN050 | 29.5 | 22.9 | 68% | 33 | 76.28 | 1016.8 | ||||||
| Date | Time (cdt) | Wind (kph) | Vis. (km) | Weather | Sky Cond. | Air | Dwpt | Max. | Min. | Relative Humidity | Wind Chill (°C) | Heat Index (°C) | altimeter (cm) | sea level (mb) | 1 hr | 3 hr | 6 hr |
| 6 hour | |||||||||||||||||
| Temperature (ºC) | Pressure | Precipitation (cm) | |||||||||||||||